Time;durP1;ratioP1;P1;durP2;ratioP2;P2;SDS_P1;SDS_P2;PMS_P1;PMS_P2;Temp;Humidity;BMP_temperature;BMP_pressure;BME280_temperature;BME280_humidity;BME280_pressure;Samples;Min_cycle;Max_cycle;Signal;HPM_P1;HPM_P2
2020/12/17 00:00:07;;;;;;;8.73;5.00;;;11.20;99.90;;;;;;5075226;28;20054;-64
2020/12/17 00:02:34;;;;;;;6.15;4.65;;;11.30;99.90;;;;;;5075146;28;20476;-64
2020/12/17 00:05:01;;;;;;;6.97;4.88;;;11.20;99.90;;;;;;5075251;28;20049;-64
2020/12/17 00:07:30;;;;;;;5.93;3.75;;;11.10;99.90;;;;;;5075204;28;20056;-64
2020/12/17 00:10:00;;;;;;;6.30;4.00;;;11.10;99.90;;;;;;5075071;28;20508;-64
2020/12/17 00:12:26;;;;;;;6.75;4.90;;;11.20;99.90;;;;;;5074947;28;20048;-63
2020/12/17 00:14:55;;;;;;;5.30;3.85;;;11.20;99.90;;;;;;5074972;28;20057;-64
2020/12/17 00:17:22;;;;;;;7.57;4.10;;;11.20;99.90;;;;;;5075149;28;20139;-64
2020/12/17 00:19:50;;;;;;;6.63;4.10;;;11.20;99.90;;;;;;5074879;28;20053;-64
2020/12/17 00:22:20;;;;;;;6.75;4.40;;;11.20;99.90;;;;;;5075265;28;20139;-64
2020/12/17 00:24:46;;;;;;;6.22;4.10;;;11.30;99.90;;;;;;5074793;28;20048;-64
2020/12/17 00:27:13;;;;;;;6.30;4.50;;;11.30;99.90;;;;;;5074902;28;20048;-64
2020/12/17 00:29:40;;;;;;;6.82;4.13;;;11.20;99.90;;;;;;5074174;28;20053;-64
2020/12/17 00:32:06;;;;;;;5.50;3.92;;;11.30;99.90;;;;;;5074665;28;20413;-64
2020/12/17 00:34:36;;;;;;;6.43;4.43;;;11.40;99.90;;;;;;5074615;28;20044;-64
2020/12/17 00:37:04;;;;;;;;;;;11.30;99.90;;;;;;5075169;28;20493;-64
2020/12/17 00:39:30;;;;;;;4.93;3.85;;;11.20;99.90;;;;;;5074497;28;19920;-64
2020/12/17 00:41:58;;;;;;;6.07;3.72;;;11.20;99.90;;;;;;5074016;28;20063;-64
2020/12/17 00:44:25;;;;;;;6.00;3.85;;;11.30;99.90;;;;;;5074493;28;20489;-64
2020/12/17 00:46:51;;;;;;;5.53;3.72;;;11.30;99.90;;;;;;5074759;28;20041;-64
2020/12/17 00:49:21;;;;;;;5.45;3.58;;;11.40;99.90;;;;;;5074606;28;20052;-64
2020/12/17 00:51:47;;;;;;;5.97;3.45;;;11.40;99.90;;;;;;5073822;28;20049;-64
2020/12/17 00:54:16;;;;;;;6.15;3.55;;;11.30;99.90;;;;;;5073973;28;20051;-64
2020/12/17 00:56:46;;;;;;;5.80;4.45;;;11.40;99.90;;;;;;5073988;28;20099;-64
2020/12/17 00:59:13;;;;;;;6.30;3.92;;;11.40;99.90;;;;;;5074022;28;20087;-64
2020/12/17 01:01:40;;;;;;;5.85;4.03;;;11.40;99.90;;;;;;5073838;28;20048;-65
2020/12/17 01:04:10;;;;;;;6.10;4.20;;;11.50;99.90;;;;;;5074097;28;20049;-64
2020/12/17 01:06:39;;;;;;;5.20;3.72;;;11.50;99.90;;;;;;5074246;28;20378;-64
2020/12/17 01:09:05;;;;;;;6.65;3.92;;;11.50;99.90;;;;;;5073873;28;20055;-64
2020/12/17 01:11:38;;;;;;;8.68;4.22;;;11.50;99.90;;;;;;5071999;28;20048;-64
2020/12/17 01:14:04;;;;;;;6.28;4.03;;;11.50;99.90;;;;;;5073760;28;20084;-64
2020/12/17 01:16:32;;;;;;;4.80;3.38;;;11.40;99.90;;;;;;5073892;28;20044;-64
2020/12/17 01:18:59;;;;;;;5.65;3.90;;;11.40;99.90;;;;;;5073354;28;20048;-64
2020/12/17 01:21:26;;;;;;;8.05;3.72;;;11.40;99.90;;;;;;5073248;28;20044;-64
2020/12/17 01:23:52;;;;;;;6.35;3.60;;;11.30;99.90;;;;;;5073772;28;20184;-64
2020/12/17 01:26:19;;;;;;;4.85;3.70;;;11.30;99.90;;;;;;5073772;28;20047;-64
2020/12/17 01:28:46;;;;;;;5.25;3.88;;;11.30;99.90;;;;;;5073403;28;20044;-64
2020/12/17 01:31:17;;;;;;;5.88;3.53;;;11.20;99.90;;;;;;5072525;28;20106;-64
2020/12/17 01:33:44;;;;;;;4.43;3.20;;;11.20;99.90;;;;;;5073787;28;20064;-64
2020/12/17 01:36:14;;;;;;;5.72;3.90;;;11.20;99.90;;;;;;5073414;28;20045;-64
2020/12/17 01:38:41;;;;;;;6.57;4.75;;;11.30;99.90;;;;;;5073924;28;20048;-64
2020/12/17 01:41:11;;;;;;;6.93;3.83;;;11.20;99.90;;;;;;5073689;28;20559;-64
2020/12/17 01:43:40;;;;;;;4.95;3.08;;;11.20;99.90;;;;;;5073722;28;20059;-64
2020/12/17 01:46:08;;;;;;;6.63;3.92;;;11.20;99.90;;;;;;5073337;28;20044;-64
2020/12/17 01:48:35;;;;;;;5.03;3.00;;;11.20;99.90;;;;;;5073167;28;20048;-64
2020/12/17 01:51:03;;;;;;;5.55;3.72;;;11.10;99.90;;;;;;5073626;28;20056;-64
2020/12/17 01:53:34;;;;;;;5.65;3.17;;;11.20;99.90;;;;;;5073850;28;20049;-64
2020/12/17 01:56:03;;;;;;;4.60;3.38;;;11.20;99.90;;;;;;5073610;28;20072;-64
2020/12/17 01:58:39;;;;;;;4.68;2.95;;;11.20;99.90;;;;;;5073442;28;20114;-64
2020/12/17 02:01:11;;;;;;;4.82;3.40;;;11.20;99.90;;;;;;5073498;28;20080;-64
2020/12/17 02:03:38;;;;;;;6.05;3.90;;;11.20;99.90;;;;;;5073610;28;20052;-64
2020/12/17 02:06:07;;;;;;;4.57;3.50;;;11.20;99.90;;;;;;5073121;28;20048;-64
2020/12/17 02:08:38;;;;;;;5.28;3.65;;;11.20;99.90;;;;;;5072916;28;20075;-64
2020/12/17 02:11:08;;;;;;;6.18;3.80;;;11.20;99.90;;;;;;5072878;28;20131;-64
2020/12/17 02:13:38;;;;;;;4.80;3.10;;;11.30;99.90;;;;;;5073117;28;20127;-64
2020/12/17 02:16:06;;;;;;;4.45;3.20;;;11.30;99.90;;;;;;5072736;28;20051;-64
2020/12/17 02:18:34;;;;;;;4.20;2.80;;;11.30;99.90;;;;;;5072491;28;20052;-64
2020/12/17 02:21:03;;;;;;;6.10;3.40;;;11.30;99.90;;;;;;5072394;28;20045;-64
2020/12/17 02:23:29;;;;;;;5.28;2.80;;;11.30;99.90;;;;;;5072772;28;20201;-64
2020/12/17 02:25:57;;;;;;;5.68;2.92;;;11.30;99.90;;;;;;5072916;28;20052;-64
2020/12/17 02:28:24;;;;;;;4.38;3.03;;;11.40;99.90;;;;;;5072587;28;20481;-64
2020/12/17 02:30:50;;;;;;;6.45;2.72;;;11.50;99.90;;;;;;5072534;28;20451;-64
2020/12/17 02:33:17;;;;;;;4.97;3.10;;;11.50;99.90;;;;;;5072989;28;20075;-64
2020/12/17 02:35:47;;;;;;;5.28;3.42;;;11.50;99.90;;;;;;5072830;28;20045;-64
2020/12/17 02:38:13;;;;;;;3.65;2.08;;;11.50;99.90;;;;;;5072611;28;20486;-64
2020/12/17 02:40:40;;;;;;;5.75;3.13;;;11.50;99.90;;;;;;5073076;28;20052;-64
2020/12/17 02:43:10;;;;;;;4.95;3.20;;;11.50;99.90;;;;;;5073045;28;20048;-64
2020/12/17 02:45:36;;;;;;;;;;;11.40;99.90;;;;;;5073469;28;20040;-64
2020/12/17 02:48:03;;;;;;;3.60;2.28;;;11.20;99.90;;;;;;5072675;28;19920;-65
2020/12/17 02:50:29;;;;;;;8.13;3.83;;;11.10;99.90;;;;;;5072535;28;20048;-65
2020/12/17 02:52:58;;;;;;;4.55;3.50;;;11.10;99.90;;;;;;5072741;28;20059;-65
2020/12/17 02:55:25;;;;;;;5.85;3.35;;;11.10;99.90;;;;;;5072594;28;20182;-65
2020/12/17 02:57:54;;;;;;;5.35;3.10;;;11.00;99.90;;;;;;5072038;28;20052;-64
2020/12/17 03:00:21;;;;;;;4.00;2.75;;;11.10;99.90;;;;;;5072508;28;20048;-64
2020/12/17 03:02:54;;;;;;;5.25;3.00;;;11.10;99.90;;;;;;5072602;28;20071;-65
2020/12/17 03:05:21;;;;;;;5.95;3.45;;;11.10;99.90;;;;;;5072330;28;20048;-65
2020/12/17 03:07:47;;;;;;;6.78;2.95;;;11.10;99.90;;;;;;5072430;28;20401;-64
2020/12/17 03:10:14;;;;;;;4.78;2.88;;;11.10;99.90;;;;;;5072373;28;20485;-65
2020/12/17 03:12:42;;;;;;;4.30;2.90;;;11.20;99.90;;;;;;5072381;28;20088;-65
2020/12/17 03:15:09;;;;;;;5.75;3.33;;;11.20;99.90;;;;;;5072335;28;20057;-65
2020/12/17 03:17:37;;;;;;;6.50;3.20;;;11.30;99.90;;;;;;5071822;28;20044;-65
2020/12/17 03:20:06;;;;;;;5.82;3.22;;;11.40;99.90;;;;;;5072339;28;20136;-65
2020/12/17 03:22:32;;;;;;;3.65;2.65;;;11.30;99.90;;;;;;5072556;28;20064;-65
2020/12/17 03:24:59;;;;;;;4.93;3.20;;;11.40;99.90;;;;;;5072491;28;20064;-65
2020/12/17 03:27:26;;;;;;;5.95;2.92;;;11.40;99.90;;;;;;5071980;28;20053;-65
2020/12/17 03:29:53;;;;;;;4.10;2.85;;;11.50;99.90;;;;;;5073107;28;20060;-65
2020/12/17 03:32:19;;;;;;;4.70;3.08;;;11.50;99.90;;;;;;5076201;28;20059;-64
2020/12/17 03:34:47;;;;;;;5.35;2.97;;;11.50;99.90;;;;;;5075771;28;20080;-64
2020/12/17 03:37:14;;;;;;;5.00;2.70;;;11.50;99.90;;;;;;5075038;28;20052;-64
2020/12/17 03:39:40;;;;;;;5.40;3.13;;;11.50;99.90;;;;;;5075792;28;20053;-64
2020/12/17 03:42:09;;;;;;;5.07;2.78;;;11.50;99.90;;;;;;5075613;28;20052;-64
2020/12/17 03:44:38;;;;;;;5.72;3.20;;;11.60;99.90;;;;;;5074759;28;20052;-64
2020/12/17 03:47:05;;;;;;;4.85;3.08;;;11.60;99.90;;;;;;5076202;28;20147;-64
2020/12/17 03:49:33;;;;;;;5.72;3.60;;;11.60;99.90;;;;;;5075656;28;20092;-64
2020/12/17 03:52:04;;;;;;;3.88;2.90;;;11.60;99.90;;;;;;5075173;28;20489;-64
2020/12/17 03:54:32;;;;;;;4.22;3.13;;;11.60;99.90;;;;;;5075262;28;20056;-64
2020/12/17 03:57:02;;;;;;;4.63;3.40;;;11.60;99.90;;;;;;5075653;28;20454;-64
2020/12/17 03:59:29;;;;;;;5.45;3.15;;;11.60;99.90;;;;;;5075475;28;20121;-64
2020/12/17 04:01:55;;;;;;;3.88;2.70;;;11.40;99.90;;;;;;5075149;28;20055;-64
2020/12/17 04:04:22;;;;;;;4.82;3.10;;;11.50;99.90;;;;;;5075022;28;20052;-64
2020/12/17 04:06:51;;;;;;;5.50;2.83;;;11.50;99.90;;;;;;5074734;28;20417;-64
2020/12/17 04:09:18;;;;;;;4.18;3.10;;;11.50;99.90;;;;;;5075281;28;20391;-64
2020/12/17 04:11:45;;;;;;;5.93;3.47;;;11.50;99.90;;;;;;5075090;28;20071;-64
2020/12/17 04:14:14;;;;;;;5.18;3.17;;;11.50;99.90;;;;;;5075063;28;20048;-63
2020/12/17 04:16:41;;;;;;;4.75;2.95;;;11.40;99.90;;;;;;5074636;28;20090;-64
2020/12/17 04:19:08;;;;;;;4.57;3.40;;;11.40;99.90;;;;;;5075098;28;20512;-63
2020/12/17 04:21:34;;;;;;;4.93;3.22;;;11.30;99.90;;;;;;5075456;28;20056;-63
2020/12/17 04:24:01;;;;;;;6.07;3.70;;;11.30;99.90;;;;;;5074980;28;20060;-63
2020/12/17 04:26:28;;;;;;;4.20;3.08;;;11.40;99.90;;;;;;5074381;28;20045;-63
2020/12/17 04:29:01;;;;;;;4.50;3.10;;;11.30;99.90;;;;;;5074708;28;20049;-63
2020/12/17 04:31:28;;;;;;;6.28;3.63;;;11.30;99.90;;;;;;5074829;28;20044;-63
2020/12/17 04:33:54;;;;;;;4.50;3.17;;;11.30;99.90;;;;;;5074692;28;20496;-63
2020/12/17 04:36:21;;;;;;;6.18;3.78;;;11.20;99.90;;;;;;5074410;28;20045;-63
2020/12/17 04:38:52;;;;;;;4.50;3.28;;;11.20;99.90;;;;;;5074371;28;20053;-64
2020/12/17 04:41:20;;;;;;;4.60;2.85;;;11.20;99.90;;;;;;5074000;28;20055;-64
2020/12/17 04:43:47;;;;;;;4.65;3.22;;;11.20;99.90;;;;;;5074601;28;20103;-64
2020/12/17 04:46:19;;;;;;;4.75;2.90;;;11.20;99.90;;;;;;5074529;28;20048;-64
2020/12/17 04:48:50;;;;;;;6.57;3.60;;;11.20;99.90;;;;;;5074517;28;20409;-64
2020/12/17 04:51:22;;;;;;;4.43;3.38;;;11.10;99.90;;;;;;5074254;28;20056;-64
2020/12/17 04:53:50;;;;;;;4.05;3.15;;;11.10;99.90;;;;;;5074133;28;20053;-63
2020/12/17 04:56:18;;;;;;;6.10;3.60;;;11.10;99.90;;;;;;5073850;28;20045;-64
2020/12/17 04:58:46;;;;;;;4.90;3.40;;;11.10;99.90;;;;;;5074081;28;20485;-64
2020/12/17 05:01:15;;;;;;;5.47;3.33;;;11.10;99.90;;;;;;5074287;28;20048;-64
2020/12/17 05:03:48;;;;;;;4.72;3.33;;;11.10;99.90;;;;;;5073797;28;20131;-64
2020/12/17 05:06:23;;;;;;;7.38;4.03;;;11.10;99.90;;;;;;5073579;28;20139;-63
2020/12/17 05:08:50;;;;;;;5.32;3.83;;;11.10;99.90;;;;;;5073824;28;20055;-64
2020/12/17 05:11:17;;;;;;;5.88;3.60;;;11.10;99.90;;;;;;5074055;28;20052;-64
2020/12/17 05:13:43;;;;;;;7.93;3.97;;;11.10;99.90;;;;;;5073748;28;20052;-63
2020/12/17 05:16:10;;;;;;;7.40;4.32;;;11.10;99.90;;;;;;5073421;28;20127;-63
2020/12/17 05:18:38;;;;;;;5.80;4.03;;;11.10;99.90;;;;;;5073582;28;20496;-64
2020/12/17 05:21:05;;;;;;;5.65;4.00;;;11.10;99.90;;;;;;5073492;28;20052;-64
2020/12/17 05:23:32;;;;;;;8.45;4.30;;;10.90;99.90;;;;;;5073624;28;20049;-64
2020/12/17 05:26:00;;;;;;;5.28;4.00;;;11.00;99.90;;;;;;5073382;28;20374;-64
2020/12/17 05:28:27;;;;;;;5.85;4.00;;;11.00;99.90;;;;;;5073456;28;20078;-64
2020/12/17 05:30:53;;;;;;;4.60;3.40;;;11.00;99.90;;;;;;5072907;28;20091;-64
2020/12/17 05:33:22;;;;;;;5.85;3.95;;;10.90;99.90;;;;;;5073068;28;20084;-63
2020/12/17 05:35:50;;;;;;;7.40;4.15;;;10.90;99.90;;;;;;5073255;28;20097;-64
2020/12/17 05:38:22;;;;;;;6.65;4.35;;;11.00;99.90;;;;;;5073295;28;20066;-63
2020/12/17 05:40:49;;;;;;;5.40;4.30;;;11.00;99.90;;;;;;5073234;28;20060;-63
2020/12/17 05:43:21;;;;;;;7.32;4.20;;;10.90;99.90;;;;;;5072362;28;20471;-63
2020/12/17 05:45:48;;;;;;;5.50;4.40;;;11.00;99.90;;;;;;5073000;28;20070;-64
2020/12/17 05:48:17;;;;;;;6.40;4.40;;;10.90;99.90;;;;;;5073365;28;20501;-63
2020/12/17 05:50:52;;;;;;;9.48;4.10;;;10.90;99.90;;;;;;5073260;28;20392;-63
2020/12/17 05:53:19;;;;;;;6.82;4.18;;;11.00;99.90;;;;;;5072350;28;20405;-63
2020/12/17 05:55:47;;;;;;;5.57;4.22;;;10.90;99.90;;;;;;5072837;28;20087;-64
2020/12/17 05:58:14;;;;;;;7.38;4.55;;;10.90;99.90;;;;;;5073161;28;20504;-64
2020/12/17 06:00:40;;;;;;;6.80;4.63;;;10.90;99.90;;;;;;5073102;28;20090;-64
2020/12/17 06:03:11;;;;;;;6.13;4.50;;;10.80;99.90;;;;;;5073492;28;20055;-64
2020/12/17 06:05:44;;;;;;;5.93;4.45;;;10.80;99.90;;;;;;5072454;28;20127;-63
2020/12/17 06:08:17;;;;;;;8.00;5.28;;;10.70;99.90;;;;;;5072836;28;20611;-64
2020/12/17 06:10:48;;;;;;;6.53;4.55;;;10.70;99.90;;;;;;5072934;28;20080;-64
2020/12/17 06:13:15;;;;;;;5.63;4.50;;;10.70;99.90;;;;;;5072860;28;20068;-64
2020/12/17 06:15:45;;;;;;;6.03;4.70;;;10.70;99.90;;;;;;5073021;28;20491;-64
2020/12/17 06:18:15;;;;;;;6.60;4.53;;;10.70;99.90;;;;;;5072799;28;20052;-63
2020/12/17 06:20:44;;;;;;;6.22;3.92;;;10.70;99.90;;;;;;5072542;28;20076;-64
2020/12/17 06:23:14;;;;;;;7.38;4.68;;;10.70;99.90;;;;;;5072873;28;20484;-64
2020/12/17 06:25:42;;;;;;;7.65;4.85;;;10.70;99.90;;;;;;5071493;28;20439;-64
2020/12/17 06:28:36;;;;;;;6.30;4.78;;;10.70;99.90;;;;;;5072602;28;20101;-63
2020/12/17 06:31:04;;;;;;;7.40;5.28;;;10.60;99.90;;;;;;5072426;28;20137;-64
2020/12/17 06:33:35;;;;;;;6.35;4.50;;;10.70;99.90;;;;;;5072342;28;20109;-63
2020/12/17 06:36:09;;;;;;;6.75;4.43;;;10.60;99.90;;;;;;5072643;28;20374;-64
2020/12/17 06:38:38;;;;;;;6.88;4.57;;;10.70;99.90;;;;;;5072794;28;20086;-64
2020/12/17 06:41:22;;;;;;;8.70;4.28;;;10.70;99.90;;;;;;5073279;28;20052;-64
2020/12/17 06:43:49;;;;;;;6.07;4.03;;;10.70;99.90;;;;;;5072036;28;20078;-63
2020/12/17 06:46:36;;;;;;;5.55;4.25;;;10.80;99.90;;;;;;5072506;28;20075;-64
2020/12/17 06:49:06;;;;;;;6.13;4.68;;;10.70;99.90;;;;;;5072465;28;20052;-63
2020/12/17 06:51:37;;;;;;;7.88;5.20;;;10.70;99.90;;;;;;5072536;28;20055;-64
2020/12/17 06:54:06;;;;;;;7.72;5.00;;;10.70;99.90;;;;;;5072140;28;20480;-63
2020/12/17 06:56:37;;;;;;;7.70;4.50;;;10.80;99.90;;;;;;5071926;28;20549;-64
2020/12/17 06:59:14;;;;;;;9.23;5.20;;;10.80;99.90;;;;;;5072266;28;20140;-64
2020/12/17 07:01:41;;;;;;;8.55;5.55;;;10.70;99.90;;;;;;5072387;28;20059;-64
2020/12/17 07:04:08;;;;;;;9.43;5.53;;;10.70;99.90;;;;;;5072738;28;20132;-64
2020/12/17 07:06:35;;;;;;;8.68;5.60;;;10.70;99.90;;;;;;5076337;28;20083;-64
2020/12/17 07:09:02;;;;;;;6.82;5.32;;;10.60;99.90;;;;;;5076588;28;20057;-64
2020/12/17 07:11:36;;;;;;;9.60;5.60;;;10.60;99.90;;;;;;5076387;28;20582;-64
2020/12/17 07:14:06;;;;;;;9.32;6.45;;;10.60;99.90;;;;;;5075240;28;20080;-64
2020/12/17 07:16:35;;;;;;;10.68;6.57;;;10.60;99.90;;;;;;5075891;28;20049;-64
2020/12/17 07:19:21;;;;;;;10.15;5.28;;;10.70;99.90;;;;;;5075842;28;20045;-64
2020/12/17 07:21:51;;;;;;;9.15;6.47;;;10.60;99.90;;;;;;5076168;28;20488;-64
2020/12/17 07:24:21;;;;;;;;;;;10.40;99.90;;;;;;5076489;28;20051;-64
2020/12/17 07:26:49;;;;;;;10.52;7.00;;;10.30;99.90;;;;;;5075754;28;19920;-64
2020/12/17 07:29:15;;;;;;;8.07;4.93;;;10.10;99.90;;;;;;5075479;28;20049;-64
2020/12/17 07:31:42;;;;;;;12.32;6.95;;;10.00;99.90;;;;;;5075873;28;20052;-64
2020/12/17 07:34:15;;;;;;;10.43;7.55;;;10.00;99.90;;;;;;5075931;28;20064;-64
2020/12/17 07:36:49;;;;;;;13.50;7.25;;;9.90;99.90;;;;;;5075637;28;20101;-64
2020/12/17 07:39:16;;;;;;;22.30;8.43;;;9.80;99.90;;;;;;5075221;28;20051;-64
2020/12/17 07:41:42;;;;;;;14.25;8.32;;;9.80;99.90;;;;;;5076145;28;20048;-64
2020/12/17 07:44:10;;;;;;;23.73;9.32;;;9.70;99.90;;;;;;5075483;28;20467;-64
2020/12/17 07:46:38;;;;;;;16.92;9.95;;;9.70;99.90;;;;;;5075594;28;20048;-64
2020/12/17 07:49:21;;;;;;;15.77;9.55;;;9.70;99.90;;;;;;5075418;28;20473;-64
2020/12/17 07:51:50;;;;;;;14.57;10.13;;;9.70;99.90;;;;;;5075025;28;20088;-64
2020/12/17 07:54:20;;;;;;;17.57;10.07;;;9.70;99.90;;;;;;5075151;28;20593;-63
2020/12/17 07:56:48;;;;;;;22.45;8.88;;;9.70;99.90;;;;;;5075335;28;20385;-64
2020/12/17 07:59:15;;;;;;;14.65;9.35;;;9.70;99.90;;;;;;5074971;28;20066;-63
2020/12/17 08:01:42;;;;;;;11.50;8.40;;;9.70;99.90;;;;;;5075327;28;20048;-64
2020/12/17 08:04:11;;;;;;;12.52;8.68;;;9.70;99.90;;;;;;5075266;28;20091;-64
2020/12/17 08:06:38;;;;;;;14.40;9.10;;;9.60;99.90;;;;;;5075516;28;20500;-64
2020/12/17 08:09:05;;;;;;;15.43;7.80;;;9.80;99.90;;;;;;5074448;28;20084;-64
2020/12/17 08:11:31;;;;;;;12.88;8.48;;;9.80;99.90;;;;;;5074885;28;20109;-64
2020/12/17 08:14:03;;;;;;;12.02;7.97;;;9.80;99.90;;;;;;5075168;28;20048;-64
2020/12/17 08:16:31;;;;;;;13.52;7.22;;;9.70;99.90;;;;;;5074176;28;20516;-64
2020/12/17 08:18:59;;;;;;;10.95;6.75;;;9.60;99.90;;;;;;5074638;28;20056;-64
2020/12/17 08:21:27;;;;;;;8.20;6.28;;;9.70;99.90;;;;;;5075307;28;20056;-64
2020/12/17 08:23:54;;;;;;;6.35;4.75;;;9.60;99.90;;;;;;5074863;28;20052;-64
2020/12/17 08:26:23;;;;;;;9.98;6.70;;;9.70;99.90;;;;;;5074809;28;20048;-64
2020/12/17 08:28:50;;;;;;;9.77;6.13;;;9.70;99.90;;;;;;5071197;28;20044;-64
2020/12/17 08:31:19;;;;;;;9.70;5.90;;;9.70;99.90;;;;;;5066707;28;20498;-64
2020/12/17 08:33:49;;;;;;;10.38;7.40;;;9.70;99.90;;;;;;5073907;28;20508;-64
2020/12/17 08:36:20;;;;;;;9.68;7.10;;;9.70;99.90;;;;;;5057853;28;20045;-64
2020/12/17 08:38:57;;;;;;;9.30;6.43;;;9.80;99.90;;;;;;5054581;28;20051;-64
2020/12/17 08:41:28;;;;;;;8.77;6.30;;;9.80;99.90;;;;;;5054407;28;20052;-65
2020/12/17 08:44:01;;;;;;;7.97;5.95;;;9.80;99.90;;;;;;5061493;28;20044;-64
2020/12/17 08:46:28;;;;;;;7.50;6.20;;;9.90;99.90;;;;;;5074641;28;20041;-64
2020/12/17 08:48:58;;;;;;;8.57;5.95;;;9.90;99.90;;;;;;5054153;28;20060;-64
2020/12/17 08:51:25;;;;;;;9.05;6.55;;;9.90;99.90;;;;;;5054397;28;20056;-64
2020/12/17 08:53:52;;;;;;;8.35;6.00;;;10.00;99.90;;;;;;5059794;28;20048;-64
2020/12/17 08:56:21;;;;;;;8.25;6.13;;;9.90;99.90;;;;;;5074496;28;20424;-64
2020/12/17 08:58:53;;;;;;;9.68;5.78;;;9.90;99.90;;;;;;5073982;28;20158;-64
2020/12/17 09:01:24;;;;;;;16.38;6.20;;;10.00;99.90;;;;;;5073596;28;20086;-64
2020/12/17 09:03:52;;;;;;;12.88;6.38;;;9.90;99.90;;;;;;5074052;28;20507;-64
2020/12/17 09:06:26;;;;;;;9.57;6.68;;;9.90;99.90;;;;;;5072730;28;20080;-64
2020/12/17 09:08:54;;;;;;;8.68;6.78;;;10.10;99.90;;;;;;5073996;28;20044;-64
2020/12/17 09:11:36;;;;;;;9.18;7.00;;;10.10;99.90;;;;;;5074214;28;20444;-64
2020/12/17 09:14:04;;;;;;;6.40;5.35;;;10.10;99.90;;;;;;5074068;28;20087;-64
2020/12/17 09:16:32;;;;;;;7.75;5.00;;;10.10;99.90;;;;;;5073054;28;20094;-64
2020/12/17 09:19:02;;;;;;;7.55;5.32;;;10.00;99.90;;;;;;5073856;28;20052;-64
2020/12/17 09:21:29;;;;;;;5.28;4.10;;;10.10;99.90;;;;;;5072269;28;20048;-64
2020/12/17 09:24:00;;;;;;;7.03;4.80;;;10.10;99.90;;;;;;5068700;28;20448;-64
2020/12/17 09:26:29;;;;;;;5.43;4.75;;;10.10;99.90;;;;;;5061408;28;20124;-64
2020/12/17 09:28:58;;;;;;;6.10;4.30;;;10.10;99.90;;;;;;5068902;28;20055;-64
2020/12/17 09:31:31;;;;;;;6.07;4.97;;;10.10;99.90;;;;;;5057271;28;20509;-64
2020/12/17 09:34:07;;;;;;;5.45;4.60;;;10.20;99.90;;;;;;5065698;28;20044;-64
2020/12/17 09:36:37;;;;;;;6.53;4.28;;;10.20;99.90;;;;;;5061607;28;20098;-64
2020/12/17 09:39:06;;;;;;;5.25;4.13;;;10.20;99.90;;;;;;5053333;28;20440;-64
2020/12/17 09:41:35;;;;;;;6.55;4.60;;;10.10;99.90;;;;;;5056327;28;20053;-64
2020/12/17 09:44:03;;;;;;;6.22;4.43;;;10.20;99.90;;;;;;5065327;28;20076;-64
2020/12/17 09:46:43;;;;;;;6.07;4.00;;;10.20;99.90;;;;;;5058980;28;20092;-64
2020/12/17 09:49:30;;;;;;;5.82;4.57;;;10.30;99.90;;;;;;5054234;28;20080;-64
2020/12/17 09:52:06;;;;;;;4.95;3.88;;;10.50;99.90;;;;;;5058518;28;20041;-64
2020/12/17 09:54:33;;;;;;;4.95;3.70;;;10.80;99.90;;;;;;5060193;28;20060;-64
2020/12/17 09:57:05;;;;;;;7.47;4.53;;;11.30;99.90;;;;;;5067934;28;20551;-64
2020/12/17 09:59:32;;;;;;;4.90;3.33;;;11.90;99.90;;;;;;5060602;28;20519;-64
2020/12/17 10:02:00;;;;;;;6.05;3.65;;;11.70;99.90;;;;;;5071086;28;20061;-64
2020/12/17 10:04:26;;;;;;;5.75;2.88;;;11.70;99.90;;;;;;5072202;28;20514;-64
2020/12/17 10:06:53;;;;;;;5.82;3.40;;;11.70;99.90;;;;;;5067343;28;20394;-64
2020/12/17 10:09:23;;;;;;;4.97;3.28;;;11.80;99.90;;;;;;5053031;28;20434;-64
2020/12/17 10:11:53;;;;;;;4.97;3.40;;;11.70;99.90;;;;;;5055390;28;20044;-63
2020/12/17 10:14:20;;;;;;;;;;;11.90;99.90;;;;;;5057797;28;20051;-63
2020/12/17 10:16:47;;;;;;;5.50;2.83;;;12.10;99.90;;;;;;5070557;28;19975;-63
2020/12/17 10:19:15;;;;;;;3.47;2.53;;;11.90;99.90;;;;;;5069956;28;20047;-63
2020/12/17 10:21:41;;;;;;;5.43;2.75;;;11.70;99.90;;;;;;5062678;28;20052;-63
2020/12/17 10:24:09;;;;;;;4.38;2.78;;;11.50;99.90;;;;;;5064545;28;20095;-63
2020/12/17 10:26:36;;;;;;;3.92;2.35;;;11.50;99.90;;;;;;5072645;28;20048;-63
2020/12/17 10:29:03;;;;;;;4.75;2.40;;;11.60;99.90;;;;;;5071506;28;20083;-63
2020/12/17 10:31:29;;;;;;;3.85;2.10;;;11.70;99.90;;;;;;5053427;28;20096;-63
2020/12/17 10:33:56;;;;;;;6.28;5.78;;;11.50;99.90;;;;;;5053913;28;20387;-63
2020/12/17 10:36:24;;;;;;;4.82;2.53;;;12.20;99.90;;;;;;5071487;28;20048;-63
2020/12/17 10:38:53;;;;;;;5.35;2.22;;;12.80;99.90;;;;;;5065973;28;20049;-63
2020/12/17 10:41:26;;;;;;;3.75;2.13;;;12.90;99.90;;;;;;5056658;28;20052;-63
2020/12/17 10:43:54;;;;;;;4.55;1.90;;;13.10;99.90;;;;;;5056989;28;20061;-64
2020/12/17 10:46:21;;;;;;;3.53;1.52;;;12.70;99.90;;;;;;5075142;28;20044;-64
2020/12/17 10:48:48;;;;;;;4.20;1.85;;;12.50;99.90;;;;;;5075574;28;20049;-64
2020/12/17 10:51:14;;;;;;;3.17;1.80;;;12.00;99.90;;;;;;5067049;28;20049;-64
2020/12/17 10:53:41;;;;;;;4.70;1.80;;;11.80;99.90;;;;;;5056492;28;20084;-65
2020/12/17 10:56:08;;;;;;;3.40;1.73;;;11.70;99.90;;;;;;5075842;28;20054;-65
2020/12/17 10:58:35;;;;;;;2.17;1.30;;;11.80;99.90;;;;;;5064749;28;20500;-65
2020/12/17 11:01:03;;;;;;;4.25;2.03;;;11.60;99.90;;;;;;5058129;28;20049;-65
2020/12/17 11:03:30;;;;;;;3.38;1.95;;;11.60;99.90;;;;;;5056468;28;20049;-65
2020/12/17 11:05:57;;;;;;;3.10;1.70;;;11.30;99.90;;;;;;5070866;28;20055;-65
2020/12/17 11:08:24;;;;;;;2.00;1.20;;;11.30;99.90;;;;;;5072776;28;20512;-65
2020/12/17 11:10:51;;;;;;;2.65;1.40;;;11.50;99.90;;;;;;5075674;28;20056;-65
2020/12/17 11:13:18;;;;;;;2.53;1.60;;;11.70;99.90;;;;;;5074581;28;20051;-64
2020/12/17 11:15:48;;;;;;;1.92;1.10;;;11.70;99.90;;;;;;5072773;28;20072;-65
2020/12/17 11:18:16;;;;;;;3.92;1.65;;;11.50;99.90;;;;;;5069560;28;20413;-64
2020/12/17 11:20:44;;;;;;;3.90;1.50;;;11.50;99.90;;;;;;5075164;28;20059;-64
2020/12/17 11:23:10;;;;;;;4.07;1.50;;;11.30;99.90;;;;;;5076272;28;20056;-64
2020/12/17 11:25:39;;;;;;;5.18;2.30;;;11.20;99.90;;;;;;5062786;28;20381;-64
2020/12/17 11:28:06;;;;;;;7.35;4.82;;;11.40;99.90;;;;;;5074524;28;20120;-64
2020/12/17 11:30:32;;;;;;;4.97;1.95;;;11.50;99.90;;;;;;5075160;28;20060;-64
2020/12/17 11:33:01;;;;;;;3.67;1.63;;;11.60;99.90;;;;;;5075694;28;20059;-64
2020/12/17 11:35:29;;;;;;;4.05;1.70;;;11.80;99.90;;;;;;5074954;28;20219;-64
2020/12/17 11:37:56;;;;;;;2.92;1.80;;;11.80;99.90;;;;;;5075574;28;20066;-64
2020/12/17 11:40:23;;;;;;;2.90;1.30;;;11.90;99.90;;;;;;5075510;28;20056;-64
2020/12/17 11:42:51;;;;;;;2.50;1.60;;;11.80;99.90;;;;;;5075406;28;20071;-64
2020/12/17 11:45:18;;;;;;;2.42;1.60;;;11.90;99.90;;;;;;5074756;28;20048;-64
2020/12/17 11:47:45;;;;;;;4.97;1.90;;;12.00;99.90;;;;;;5075126;28;20408;-64
2020/12/17 11:50:11;;;;;;;2.88;1.50;;;12.60;99.90;;;;;;5075494;28;20052;-64
2020/12/17 11:52:39;;;;;;;2.95;1.35;;;12.60;99.90;;;;;;5074156;28;20052;-64
2020/12/17 11:55:08;;;;;;;7.85;2.10;;;12.30;99.90;;;;;;5075687;28;20248;-64
2020/12/17 11:57:36;;;;;;;3.33;1.70;;;12.10;99.90;;;;;;5075237;28;20485;-64
2020/12/17 12:00:06;;;;;;;4.35;1.60;;;12.10;99.90;;;;;;5075175;28;20055;-64
2020/12/17 12:02:33;;;;;;;3.97;1.80;;;12.00;99.90;;;;;;5074841;28;20074;-64
2020/12/17 12:04:59;;;;;;;4.13;1.65;;;11.80;99.90;;;;;;5075004;28;20523;-64
2020/12/17 12:07:26;;;;;;;2.92;1.60;;;11.80;99.90;;;;;;5075228;28;20477;-64
2020/12/17 12:09:53;;;;;;;5.60;2.00;;;11.80;99.90;;;;;;5074879;28;20049;-64
2020/12/17 12:12:20;;;;;;;5.70;2.40;;;11.80;99.90;;;;;;5074858;28;20084;-64
2020/12/17 12:14:47;;;;;;;5.40;2.13;;;12.40;99.90;;;;;;5074452;28;20084;-65
2020/12/17 12:17:14;;;;;;;4.55;2.00;;;12.70;99.90;;;;;;5074996;28;20130;-64
2020/12/17 12:19:40;;;;;;;4.03;2.05;;;12.50;99.90;;;;;;5074884;28;20084;-64
2020/12/17 12:22:07;;;;;;;4.95;1.80;;;12.30;99.90;;;;;;5074784;28;20045;-64
2020/12/17 12:24:36;;;;;;;7.00;2.00;;;12.10;99.90;;;;;;5074690;28;20052;-64
2020/12/17 12:27:04;;;;;;;2.63;1.70;;;11.90;99.90;;;;;;5074663;28;20056;-64
2020/12/17 12:29:30;;;;;;;12.65;11.85;;;11.70;99.90;;;;;;5073965;28;20045;-64
2020/12/17 12:31:57;;;;;;;16.73;15.88;;;12.70;99.90;;;;;;5062291;28;20498;-65
2020/12/17 12:34:25;;;;;;;11.70;10.85;;;14.40;99.90;;;;;;5068549;28;20079;-65
2020/12/17 12:36:54;;;;;;;10.13;9.43;;;15.20;99.90;;;;;;5070940;28;20127;-65
2020/12/17 12:39:21;;;;;;;4.38;1.70;;;16.60;99.90;;;;;;5054476;28;20049;-65
2020/12/17 12:41:48;;;;;;;2.90;1.65;;;15.60;99.90;;;;;;5062208;28;20040;-65
2020/12/17 12:44:16;;;;;;;3.70;2.83;;;14.30;99.90;;;;;;5054210;28;20095;-65
2020/12/17 12:46:43;;;;;;;6.32;4.75;;;14.40;99.90;;;;;;5055760;28;20421;-65
2020/12/17 12:49:10;;;;;;;3.70;1.75;;;14.90;99.90;;;;;;5054275;28;20052;-65
2020/12/17 12:51:37;;;;;;;4.93;1.80;;;14.90;99.90;;;;;;5071910;28;20492;-65
2020/12/17 12:54:03;;;;;;;10.02;9.43;;;14.20;99.90;;;;;;5072571;28;20053;-65